Flight Track Log - Related Links

Times and Time Zones

All times are in EDT time to prevent confusion due to time zone crossing. See the N8183W flight status page for this flight to view local times or setup timezone preferences in your user account.

Time Position Orientation Groundspeed Altitude Reporting Facility
EDT Latitude Longitude Course Direction KTS MPH feet Rate Location/Type
Sun 10:34:59 AM 39.5333 -75.7000 360° North 97 112 1,500  Level Philadelphia TRACON
Sun 10:36:05 AM 39.5500 -75.6833 38° Northeast 110 127 2,400 762 Climbing Philadelphia TRACON
Sun 10:37:05 AM 39.5833 -75.7000 339° North 96 110 3,100 737 Climbing Philadelphia TRACON
Sun 10:37:59 AM 39.6000 -75.7333 303° West 106 122 3,800 526 Climbing Philadelphia TRACON
Sun 10:38:59 AM 39.6333 -75.7500 339° North 115 132 4,100 100 Climbing Philadelphia TRACON
Sun 10:39:59 AM 39.6500 -75.7833 303° West 142 163 4,000 -50 Descending Philadelphia TRACON
Sun 10:40:59 AM 39.6833 -75.8167 322° Northwest 131 151 4,000  Level Philadelphia TRACON
Sun 10:41:59 AM 39.7167 -75.8333 339° North 128 147 4,000  Level Philadelphia TRACON
Sun 10:43:05 AM 39.7500 -75.8667 322° Northwest 132 152 4,000  Level Philadelphia TRACON
Sun 10:44:05 AM 39.7667 -75.9000 303° West 128 147 4,000  Level Philadelphia TRACON
Sun 10:45:05 AM 39.8000 -75.9167 339° North 128 147 4,000  Level Philadelphia TRACON
Sun 10:46:05 AM 39.8333 -75.9500 322° Northwest 130 150 4,000  Level Philadelphia TRACON
Sun 10:46:59 AM 39.8667 -75.9833 322° Northwest 128 147 4,000  Level Philadelphia TRACON
Sun 10:47:59 AM 39.8833 -76.0000 323° Northwest 127 146 4,000  Level Philadelphia TRACON
Sun 10:48:59 AM 39.9167 -76.0333 323° Northwest 126 145 4,000  Level Philadelphia TRACON
Sun 10:50:00 AM 39.9424 -76.0637 311° West  Level FlightAware
Sun 10:57:00 AM 40.0975 -76.3020 310° West  Level FlightAware
Sun 10:58:00 AM 40.1196 -76.3362 310° West  Level FlightAware
Sun 10:59:00 AM 40.1417 -76.3704 310° West  Level FlightAware
Sun 11:00:00 AM 40.1640 -76.4043 311° West  Level FlightAware
Sun 11:01:00 AM 40.1863 -76.4382 308° West  Level FlightAware
Sun 11:02:00 AM 40.2074 -76.4735 308° West  Level FlightAware
Sun 11:03:00 AM 40.2286 -76.5087 308° West  Level FlightAware
Sun 11:04:00 AM 40.2544 -76.5377 323° Northwest  Level FlightAware
Sun 11:05:00 AM 40.2816 -76.5649 323° Northwest  Level FlightAware
Sun 11:06:00 AM 40.2833 -76.5667 323° Northwest  Level FlightAware
Sun 11:07:00 AM 40.2868 -76.5770 323° Northwest  Level Estimated
Sun 11:08:00 AM 40.2868 -76.5770 323° Northwest  Level Estimated
Sun 11:09:00 AM 40.2868 -76.5770 323° Northwest  Level Estimated
Sun 11:10:00 AM 40.2868 -76.5770 323° Northwest  Level Estimated
Sun 11:11:00 AM 40.2868 -76.5770 323° Northwest  Level Estimated

Login

Don't have an account? Register now (free) for customized features, flight alerts, and more!